createdAt,value
2022-08-18T00:00:02.905Z,98123.53
2022-08-18T00:01:09.743Z,98116.63
2022-08-18T00:02:16.834Z,98115.59
2022-08-18T00:03:56.673Z,98118.88
2022-08-18T00:05:00.807Z,98118.06
2022-08-18T00:06:07.151Z,98111.31
2022-08-18T00:07:15.255Z,98113.97
2022-08-18T00:08:20.746Z,98115.78
2022-08-18T00:09:28.991Z,98107.88
2022-08-18T00:10:36.338Z,98105.03
2022-08-18T00:11:44.667Z,98101.38
2022-08-18T00:12:48.591Z,98103.63
2022-08-18T00:13:54.305Z,98101.00
2022-08-18T00:15:02.538Z,98102.63
2022-08-18T00:16:07.932Z,98104.25
2022-08-18T00:17:12.188Z,98096.31
2022-08-18T00:18:18.223Z,98102.44
2022-08-18T00:19:45.746Z,98091.03
2022-08-18T00:20:49.262Z,98097.34
2022-08-18T00:21:53.264Z,98099.97
2022-08-18T00:22:59.069Z,98098.94
2022-08-18T00:24:05.768Z,98107.44
2022-08-18T00:25:12.769Z,98096.63
2022-08-18T00:26:16.487Z,98098.44
2022-08-18T00:27:28.573Z,98098.66
2022-08-18T00:28:32.654Z,98099.66
2022-08-18T00:29:37.766Z,98102.31
2022-08-18T00:30:41.972Z,98103.28
2022-08-18T00:31:47.332Z,98103.13
2022-08-18T00:32:53.605Z,98099.66
2022-08-18T00:33:59.268Z,98098.22
2022-08-18T00:35:08.128Z,98095.78
2022-08-18T00:36:14.170Z,98100.41
2022-08-18T00:37:18.225Z,98095.53
2022-08-18T00:38:24.466Z,98104.63
2022-08-18T00:39:35.041Z,98106.06
2022-08-18T00:40:46.182Z,98107.22
2022-08-18T00:41:50.368Z,98105.00
2022-08-18T00:42:57.258Z,98095.41
2022-08-18T00:44:01.673Z,98095.81
2022-08-18T00:45:08.598Z,98106.75
2022-08-18T00:46:16.692Z,98099.34
2022-08-18T00:47:41.932Z,98103.81
2022-08-18T00:48:49.385Z,98097.91
2022-08-18T00:49:54.526Z,98098.94
2022-08-18T00:51:01.267Z,98105.41
2022-08-18T00:52:06.376Z,98107.84
2022-08-18T00:53:19.019Z,98101.94
2022-08-18T00:54:26.190Z,98107.59
2022-08-18T00:55:34.793Z,98109.41
2022-08-18T00:56:43.194Z,98105.16
2022-08-18T00:57:49.680Z,98105.91
2022-08-18T00:58:58.237Z,98106.66
2022-08-18T01:00:12.152Z,98109.88
2022-08-18T01:01:33.683Z,98102.31
2022-08-18T01:02:41.119Z,98100.50
2022-08-18T01:03:53.340Z,98102.97
2022-08-18T01:05:03.107Z,98104.38
2022-08-18T01:06:11.935Z,98095.47
2022-08-18T01:07:20.784Z,98095.28
2022-08-18T01:08:28.490Z,98089.81
2022-08-18T01:09:34.361Z,98095.91
2022-08-18T01:10:42.627Z,98088.59
2022-08-18T01:11:47.861Z,98098.34
2022-08-18T01:12:56.706Z,98091.44
2022-08-18T01:14:01.280Z,98095.91
2022-08-18T01:15:07.896Z,98097.13
2022-08-18T01:16:56.930Z,98092.78
2022-08-18T01:18:22.780Z,98096.63
2022-08-18T01:19:55.174Z,98090.88
2022-08-18T01:21:26.969Z,98093.72
2022-08-18T01:22:35.762Z,98102.81
2022-08-18T01:23:41.658Z,98100.38
2022-08-18T01:25:03.890Z,98100.53
2022-08-18T01:26:10.017Z,98106.81
2022-08-18T01:27:18.423Z,98100.94
2022-08-18T01:28:24.788Z,98104.75
2022-08-18T01:29:30.398Z,98106.56
2022-08-18T01:30:47.493Z,98101.28
2022-08-18T01:31:56.689Z,98103.13
2022-08-18T01:33:03.920Z,98106.97
2022-08-18T01:34:10.418Z,98102.84
2022-08-18T01:35:17.644Z,98098.94
2022-08-18T01:36:23.482Z,98104.41
2022-08-18T01:37:29.079Z,98106.44
2022-08-18T01:38:33.258Z,98098.69
2022-08-18T01:41:22.377Z,98099.69
2022-08-18T01:41:26.676Z,98093.16
2022-08-18T01:42:29.450Z,98100.19
2022-08-18T01:43:35.327Z,98099.72
2022-08-18T01:44:41.990Z,98101.94
2022-08-18T01:45:47.900Z,98107.38
2022-08-18T01:46:53.944Z,98105.75
2022-08-18T01:48:00.081Z,98104.13
2022-08-18T01:49:04.497Z,98102.47
2022-08-18T01:50:11.413Z,98098.22
2022-08-18T01:51:16.286Z,98097.22
2022-08-18T01:52:23.258Z,98094.75
2022-08-18T01:53:27.667Z,98090.31
2022-08-18T01:54:33.143Z,98088.66
2022-08-18T01:55:41.425Z,98085.19
2022-08-18T01:56:48.816Z,98085.38
2022-08-18T01:57:53.114Z,98083.38
2022-08-18T01:58:58.696Z,98084.38
2022-08-18T02:00:03.151Z,98082.94
2022-08-18T02:01:17.450Z,98083.97
2022-08-18T02:02:25.154Z,98080.47
2022-08-18T02:03:32.899Z,98081.47
2022-08-18T02:04:37.734Z,98087.75
2022-08-18T02:05:46.369Z,98088.78
2022-08-18T02:06:51.923Z,98091.41
2022-08-18T02:07:57.413Z,98086.13
2022-08-18T02:09:01.579Z,98089.75
2022-08-18T02:10:08.038Z,98092.53
2022-08-18T02:11:17.831Z,98082.38
2022-08-18T02:12:24.365Z,98078.28
2022-08-18T02:13:28.771Z,98085.75
2022-08-18T02:14:33.831Z,98084.28
2022-08-18T02:15:37.566Z,98075.56
2022-08-18T02:16:46.768Z,98071.13
2022-08-18T02:17:50.958Z,98069.28
2022-08-18T02:18:56.767Z,98070.75
2022-08-18T02:20:00.937Z,98067.94
2022-08-18T02:21:11.997Z,98056.38
2022-08-18T02:22:20.306Z,98063.28
2022-08-18T02:23:26.768Z,98052.72
2022-08-18T02:24:31.789Z,98058.00
2022-08-18T02:25:36.791Z,98051.91
2022-08-18T02:26:43.961Z,98055.56
2022-08-18T02:27:49.240Z,98059.81
2022-08-18T02:28:53.845Z,98055.56
2022-08-18T02:30:02.993Z,98054.56
2022-08-18T02:31:08.640Z,98063.47
2022-08-18T02:32:16.720Z,98057.94
2022-08-18T02:33:20.486Z,98058.69
2022-08-18T02:34:25.971Z,98061.22
2022-08-18T02:35:30.489Z,98060.16
2022-08-18T02:36:35.724Z,98063.13
2022-08-18T02:37:42.262Z,98063.31
2022-08-18T02:39:00.225Z,98068.59
2022-08-18T02:40:05.227Z,98064.13
2022-08-18T02:41:11.869Z,98065.78
2022-08-18T02:42:16.869Z,98066.22
2022-08-18T02:43:21.352Z,98066.84
2022-08-18T02:44:24.714Z,98060.56
2022-08-18T02:45:29.242Z,98061.38
2022-08-18T02:46:32.596Z,98064.84
2022-08-18T02:47:37.043Z,98070.94
2022-08-18T02:48:40.389Z,98071.13
2022-08-18T02:49:44.710Z,98063.41
2022-08-18T02:50:48.131Z,98073.13
2022-08-18T02:51:53.022Z,98073.47
2022-08-18T02:52:56.405Z,98076.13
2022-08-18T02:54:00.934Z,98067.41
2022-08-18T02:55:04.907Z,98076.94
2022-08-18T02:56:40.263Z,98074.28
2022-08-18T02:57:49.708Z,98069.41
2022-08-18T02:58:54.961Z,98072.19
2022-08-18T02:59:59.771Z,98072.59
2022-08-18T03:01:03.074Z,98069.13
2022-08-18T03:02:08.603Z,98074.41
2022-08-18T03:03:11.968Z,98077.84
2022-08-18T03:04:22.925Z,98081.50
2022-08-18T03:05:30.424Z,98084.28
2022-08-18T03:06:38.324Z,98078.59
2022-08-18T03:07:41.602Z,98083.19
2022-08-18T03:08:49.079Z,98089.47
2022-08-18T03:09:53.312Z,98094.56
2022-08-18T03:10:56.507Z,98097.19
2022-08-18T03:12:01.274Z,98091.91
2022-08-18T03:13:06.278Z,98097.19
2022-08-18T03:14:11.430Z,98093.72
2022-08-18T03:15:15.009Z,98095.56
2022-08-18T03:16:19.853Z,98097.19
2022-08-18T03:17:23.324Z,98089.13
2022-08-18T03:18:27.651Z,98096.03
2022-08-18T03:19:30.948Z,98094.00
2022-08-18T03:20:35.410Z,98090.38
2022-08-18T03:21:38.862Z,98090.38
2022-08-18T03:22:44.109Z,98092.19
2022-08-18T03:24:00.907Z,98092.19
2022-08-18T03:25:06.767Z,98104.56
2022-08-18T03:26:11.951Z,98094.81
2022-08-18T03:27:16.179Z,98099.28
2022-08-18T03:28:21.074Z,98097.66
2022-08-18T03:29:29.533Z,98103.25
2022-08-18T03:30:35.410Z,98095.94
2022-08-18T03:31:40.508Z,98104.81
2022-08-18T03:32:45.659Z,98106.81
2022-08-18T03:33:50.501Z,98105.19
2022-08-18T03:34:53.719Z,98104.72
2022-08-18T03:35:57.991Z,98111.19
2022-08-18T03:37:02.329Z,98110.53
2022-08-18T03:38:06.159Z,98111.72
2022-08-18T03:39:12.354Z,98112.53
2022-08-18T03:40:15.587Z,98111.53
2022-08-18T03:41:44.495Z,98116.44
2022-08-18T03:42:47.568Z,98109.97
2022-08-18T03:43:52.851Z,98112.28
2022-08-18T03:44:57.178Z,98110.25
2022-08-18T03:46:01.879Z,98109.91
2022-08-18T03:47:09.493Z,98107.72
2022-08-18T03:48:12.783Z,98105.09
2022-08-18T03:49:18.321Z,98109.38
2022-08-18T03:50:26.083Z,98114.66
2022-08-18T03:51:32.390Z,98113.66
2022-08-18T03:52:41.644Z,98110.00
2022-08-18T03:53:45.480Z,98103.09
2022-08-18T03:54:49.623Z,98107.38
2022-08-18T03:55:52.631Z,98107.19
2022-08-18T03:56:56.819Z,98108.81
2022-08-18T03:58:03.032Z,98106.19
2022-08-18T03:59:10.101Z,98114.53
2022-08-18T04:00:13.558Z,98109.94
2022-08-18T04:01:26.341Z,98109.75
2022-08-18T04:02:30.525Z,98117.66
2022-08-18T04:03:34.752Z,98117.84
2022-08-18T04:04:42.910Z,98127.38
2022-08-18T04:05:47.889Z,98121.09
2022-08-18T04:06:55.611Z,98123.38
2022-08-18T04:07:59.170Z,98127.47
2022-08-18T04:09:06.372Z,98129.91
2022-08-18T04:10:17.027Z,98124.63
2022-08-18T04:11:23.970Z,98121.84
2022-08-18T04:12:27.230Z,98122.28
2022-08-18T04:13:36.445Z,98128.81
2022-08-18T04:14:42.369Z,98123.00
2022-08-18T04:15:46.459Z,98119.84
2022-08-18T04:16:49.850Z,98122.09
2022-08-18T04:18:06.012Z,98128.63
2022-08-18T04:19:09.895Z,98124.84
2022-08-18T04:20:14.978Z,98126.31
2022-08-18T04:21:18.705Z,98123.50
2022-08-18T04:22:22.961Z,98129.22
2022-08-18T04:23:26.229Z,98123.56
2022-08-18T04:24:33.017Z,98128.31
2022-08-18T04:25:36.534Z,98129.75
2022-08-18T04:26:43.401Z,98121.63
2022-08-18T04:27:46.600Z,98125.75
2022-08-18T04:28:50.770Z,98123.09
2022-08-18T04:29:56.994Z,98131.47
2022-08-18T04:31:09.103Z,98124.00
2022-08-18T04:32:13.627Z,98124.63
2022-08-18T04:33:17.861Z,98124.91
2022-08-18T04:34:23.020Z,98125.31
2022-08-18T04:35:29.341Z,98124.78
2022-08-18T04:36:34.768Z,98135.78
2022-08-18T04:37:50.123Z,98130.31
2022-08-18T04:38:54.245Z,98135.03
2022-08-18T04:40:01.115Z,98129.19
2022-08-18T04:41:04.699Z,98136.19
2022-08-18T04:42:09.148Z,98137.28
2022-08-18T04:43:15.480Z,98132.88
2022-08-18T04:44:20.487Z,98139.03
2022-08-18T04:45:25.208Z,98137.44
2022-08-18T04:46:30.668Z,98133.88
2022-08-18T04:47:34.826Z,98140.88
2022-08-18T04:48:40.889Z,98140.94
2022-08-18T04:49:44.857Z,98139.16
2022-08-18T04:50:49.272Z,98136.56
2022-08-18T04:52:34.496Z,98130.56
2022-08-18T04:53:47.208Z,98135.69
2022-08-18T04:54:51.591Z,98131.44
2022-08-18T04:55:56.370Z,98135.97
2022-08-18T04:57:00.751Z,98131.56
2022-08-18T04:58:04.998Z,98138.72
2022-08-18T04:59:12.847Z,98136.91
2022-08-18T05:00:17.450Z,98129.03
2022-08-18T05:01:23.966Z,98139.44
2022-08-18T05:02:28.326Z,98133.38
2022-08-18T05:03:31.610Z,98136.91
2022-08-18T05:04:36.793Z,98138.56
2022-08-18T05:05:40.203Z,98137.59
2022-08-18T05:06:45.809Z,98140.28
2022-08-18T05:07:49.331Z,98141.09
2022-08-18T05:08:54.628Z,98135.66
2022-08-18T05:09:58.030Z,98144.25
2022-08-18T05:11:04.316Z,98138.16
2022-08-18T05:12:09.141Z,98143.25
2022-08-18T05:13:16.921Z,98144.09
2022-08-18T05:14:20.550Z,98139.84
2022-08-18T05:15:28.502Z,98139.03
2022-08-18T05:16:36.181Z,98135.41
2022-08-18T05:17:50.855Z,98128.50
2022-08-18T05:18:55.034Z,98124.00
2022-08-18T05:20:01.898Z,98126.47
2022-08-18T05:21:14.493Z,98115.44
2022-08-18T05:22:28.734Z,98115.25
2022-08-18T05:23:36.447Z,98121.78
2022-08-18T05:24:40.141Z,98118.50
2022-08-18T05:25:44.390Z,98117.06
2022-08-18T05:26:49.043Z,98126.22
2022-08-18T05:27:56.348Z,98120.50
2022-08-18T05:29:17.798Z,98129.66
2022-08-18T05:30:23.621Z,98124.34
2022-08-18T05:31:29.918Z,98123.69
2022-08-18T05:32:46.866Z,98118.75
2022-08-18T05:33:55.989Z,98126.22
2022-08-18T05:34:59.978Z,98129.03
2022-08-18T05:36:06.239Z,98133.78
2022-08-18T05:37:20.708Z,98133.03
2022-08-18T05:38:35.017Z,98141.81
2022-08-18T05:39:44.602Z,98129.59
2022-08-18T05:41:01.021Z,98129.31
2022-08-18T05:42:20.327Z,98136.78
2022-08-18T05:43:24.868Z,98136.34
2022-08-18T05:44:29.852Z,98134.00
2022-08-18T05:45:35.051Z,98138.28
2022-08-18T05:46:45.716Z,98131.44
2022-08-18T05:47:50.923Z,98134.13
2022-08-18T05:48:55.568Z,98141.00
2022-08-18T05:50:04.940Z,98128.16
2022-08-18T05:51:19.039Z,98131.06
2022-08-18T05:52:26.373Z,98130.94
2022-08-18T05:53:44.730Z,98128.91
2022-08-18T05:55:08.366Z,98126.66
2022-08-18T05:56:31.019Z,98132.50
2022-08-18T05:57:40.871Z,98125.19
2022-08-18T05:58:48.811Z,98133.81
2022-08-18T05:59:54.516Z,98134.94
2022-08-18T06:01:01.812Z,98135.28
2022-08-18T06:02:10.488Z,98137.00
2022-08-18T06:03:21.064Z,98136.69
2022-08-18T06:04:35.096Z,98137.78
2022-08-18T06:05:45.033Z,98140.41
2022-08-18T06:06:51.352Z,98141.91
2022-08-18T06:07:57.550Z,98143.16
2022-08-18T06:09:06.273Z,98148.38
2022-08-18T06:10:11.938Z,98151.75
2022-08-18T06:11:17.415Z,98143.53
2022-08-18T06:12:29.952Z,98142.59
2022-08-18T06:13:39.511Z,98144.03
2022-08-18T06:14:44.252Z,98152.22
2022-08-18T06:15:54.627Z,98146.72
2022-08-18T06:17:03.798Z,98147.34
2022-08-18T06:18:21.358Z,98145.81
2022-08-18T06:19:36.541Z,98148.81
2022-08-18T06:20:50.890Z,98148.31
2022-08-18T06:22:02.768Z,98148.88
2022-08-18T06:23:18.970Z,98153.22
2022-08-18T06:24:30.104Z,98146.00
2022-08-18T06:25:38.560Z,98150.88
2022-08-18T06:26:49.017Z,98146.91
2022-08-18T06:27:56.866Z,98158.81
2022-08-18T06:29:10.080Z,98152.63
2022-08-18T06:30:17.958Z,98154.84
2022-08-18T06:31:29.484Z,98158.34
2022-08-18T06:32:49.198Z,98160.25
2022-08-18T06:34:06.022Z,98164.28
2022-08-18T06:35:21.192Z,98167.28
2022-08-18T06:36:33.447Z,98159.75
2022-08-18T06:38:12.829Z,98168.66
2022-08-18T06:39:22.671Z,98162.22
2022-08-18T06:40:25.854Z,98164.38
2022-08-18T06:41:41.618Z,98161.69
2022-08-18T06:42:48.789Z,98162.00
2022-08-18T06:44:00.490Z,98164.16
2022-08-18T06:45:08.661Z,98167.09
2022-08-18T06:46:18.667Z,98163.88
2022-08-18T06:47:30.379Z,98163.13
2022-08-18T06:48:40.509Z,98166.31
2022-08-18T06:49:51.590Z,98168.47
2022-08-18T06:51:01.120Z,98172.78
2022-08-18T06:52:23.784Z,98165.25
2022-08-18T06:53:51.849Z,98174.09
2022-08-18T06:54:58.248Z,98165.50
2022-08-18T06:56:26.224Z,98163.34
2022-08-18T06:57:34.901Z,98167.41
2022-08-18T06:58:38.250Z,98172.50
2022-08-18T06:59:42.652Z,98168.50
2022-08-18T07:00:56.685Z,98164.97
2022-08-18T07:02:03.110Z,98169.78
2022-08-18T07:03:08.319Z,98168.94
2022-08-18T07:04:32.616Z,98166.50
2022-08-18T07:05:39.299Z,98165.09
2022-08-18T07:06:42.359Z,98166.94
2022-08-18T07:07:46.896Z,98165.31
2022-08-18T07:08:51.744Z,98171.50
2022-08-18T07:09:56.995Z,98169.88
2022-08-18T07:11:14.346Z,98164.47
2022-08-18T07:12:26.717Z,98166.06
2022-08-18T07:13:40.680Z,98162.75
2022-08-18T07:14:49.198Z,98160.28
2022-08-18T07:15:55.393Z,98161.84
2022-08-18T07:17:09.019Z,98162.34
2022-08-18T07:18:14.942Z,98163.69
2022-08-18T07:19:20.968Z,98159.88
2022-08-18T07:20:26.711Z,98162.53
2022-08-18T07:21:34.284Z,98168.09
2022-08-18T07:22:56.316Z,98172.06
2022-08-18T07:24:23.247Z,98168.81
2022-08-18T07:25:28.069Z,98174.22
2022-08-18T07:26:47.871Z,98166.13
2022-08-18T07:27:56.514Z,98165.06
2022-08-18T07:29:14.892Z,98161.59
2022-08-18T07:30:30.719Z,98159.72
2022-08-18T07:31:39.756Z,98156.75
2022-08-18T07:32:47.461Z,98164.22
2022-08-18T07:33:56.483Z,98158.75
2022-08-18T07:35:03.830Z,98160.84
2022-08-18T07:36:10.109Z,98157.50
2022-08-18T07:37:22.845Z,98151.88
2022-08-18T07:38:42.523Z,98155.69
2022-08-18T07:39:51.241Z,98157.69
2022-08-18T07:40:58.454Z,98154.53
2022-08-18T07:42:04.736Z,98149.97
2022-08-18T07:43:16.778Z,98156.38
2022-08-18T07:44:24.836Z,98155.44
2022-08-18T07:45:51.609Z,98148.31
2022-08-18T07:46:59.889Z,98149.28
2022-08-18T07:48:27.374Z,98142.34
2022-08-18T07:49:36.080Z,98144.03
2022-08-18T07:50:58.238Z,98146.94
2022-08-18T07:52:16.383Z,98153.19
2022-08-18T07:53:42.084Z,98147.34
2022-08-18T07:54:54.606Z,98150.66
2022-08-18T07:56:03.352Z,98140.72
2022-08-18T07:57:19.632Z,98141.47
2022-08-18T07:58:28.922Z,98144.81
2022-08-18T07:59:38.099Z,98135.06
2022-08-18T08:01:05.234Z,98140.28
2022-08-18T08:02:22.546Z,98138.38
2022-08-18T08:03:32.498Z,98133.75
2022-08-18T08:04:41.135Z,98143.78
2022-08-18T08:05:51.765Z,98136.03
2022-08-18T08:07:23.526Z,98131.19
2022-08-18T08:08:32.608Z,98139.03
2022-08-18T08:09:51.750Z,98144.47
2022-08-18T08:11:09.508Z,98144.59
2022-08-18T08:12:18.617Z,98150.09
2022-08-18T08:13:51.326Z,98143.69
2022-08-18T08:14:56.123Z,98154.28
2022-08-18T08:16:04.847Z,98156.47
2022-08-18T08:17:17.587Z,98151.59
2022-08-18T08:18:31.758Z,98146.66
2022-08-18T08:20:08.695Z,98159.03
2022-08-18T08:21:17.807Z,98152.81
2022-08-18T08:22:24.826Z,98154.72
2022-08-18T08:23:32.435Z,98153.16
2022-08-18T08:24:43.091Z,98144.81
2022-08-18T08:25:57.200Z,98156.31
2022-08-18T08:27:07.034Z,98160.63
2022-08-18T08:28:22.113Z,98157.19
2022-08-18T08:29:38.282Z,98164.81
2022-08-18T08:30:48.577Z,98173.19
2022-08-18T08:31:58.579Z,98175.41
2022-08-18T08:33:10.076Z,98168.66
2022-08-18T08:34:17.593Z,98175.09
2022-08-18T08:35:48.561Z,98182.41
2022-08-18T08:36:50.269Z,98186.63
2022-08-18T08:38:08.230Z,98190.56
2022-08-18T08:39:27.002Z,98184.84
2022-08-18T08:40:38.488Z,98179.41
2022-08-18T08:41:53.416Z,98188.25
2022-08-18T08:43:20.708Z,98190.44
2022-08-18T08:44:30.962Z,98186.53
2022-08-18T08:45:38.267Z,98192.19
2022-08-18T08:46:46.749Z,98190.56
2022-08-18T08:48:09.412Z,98193.88
2022-08-18T08:49:23.461Z,98189.78
2022-08-18T08:50:29.901Z,98192.19
2022-08-18T08:51:37.953Z,98185.50
2022-08-18T08:52:45.495Z,98190.63
2022-08-18T08:53:54.025Z,98198.69
2022-08-18T08:55:02.914Z,98202.88
2022-08-18T08:56:13.007Z,98206.13
2022-08-18T08:57:18.248Z,98200.19
2022-08-18T08:58:31.578Z,98201.88
2022-08-18T08:59:39.808Z,98197.09
2022-08-18T09:00:44.760Z,98195.25
2022-08-18T09:01:55.444Z,98203.50
2022-08-18T09:03:13.633Z,98193.72
2022-08-18T09:04:24.218Z,98199.41
2022-08-18T09:05:30.711Z,98200.06
2022-08-18T09:06:44.419Z,98192.63
2022-08-18T09:08:03.680Z,98203.22
2022-08-18T09:09:19.368Z,98194.25
2022-08-18T09:10:44.098Z,98189.34
2022-08-18T09:12:12.170Z,98187.59
2022-08-18T09:13:35.169Z,98185.00
2022-08-18T09:15:11.568Z,98185.97
2022-08-18T09:16:22.758Z,98182.25
2022-08-18T09:17:50.897Z,98183.53
2022-08-18T09:19:26.401Z,98183.34
2022-08-18T09:20:48.607Z,98190.38
2022-08-18T09:21:59.510Z,98187.03
2022-08-18T09:23:06.749Z,98192.50
2022-08-18T09:24:23.161Z,98192.84
2022-08-18T09:25:48.133Z,98185.38
2022-08-18T09:27:16.532Z,98181.19
2022-08-18T09:28:21.767Z,98184.00
2022-08-18T09:29:29.482Z,98181.31
2022-08-18T09:30:47.445Z,98181.16
2022-08-18T09:32:32.971Z,98186.38
2022-08-18T09:33:57.613Z,98188.22
2022-08-18T09:35:44.898Z,98181.75
2022-08-18T09:37:03.852Z,98179.34
2022-08-18T09:38:29.963Z,98182.13
2022-08-18T09:39:55.114Z,98188.72
2022-08-18T09:41:34.440Z,98187.78
2022-08-18T09:44:12.083Z,98183.28
2022-08-18T09:46:00.109Z,98186.19
2022-08-18T09:47:04.360Z,98191.50
2022-08-18T09:48:32.535Z,98188.13
2022-08-18T09:49:51.108Z,98186.00
2022-08-18T09:50:37.004Z,98183.22
2022-08-18T09:51:01.652Z,98179.91
2022-08-18T09:52:59.163Z,98187.34
2022-08-18T09:54:21.137Z,98184.53
2022-08-18T09:56:00.553Z,98187.31
2022-08-18T09:57:24.759Z,98182.00
2022-08-18T09:59:02.879Z,98185.75
2022-08-18T10:00:29.497Z,98180.63
2022-08-18T10:01:40.589Z,98177.75
2022-08-18T10:03:14.580Z,98179.78
2022-08-18T10:04:34.391Z,98184.34
2022-08-18T10:05:37.582Z,98180.34
2022-08-18T10:06:42.982Z,98177.03
2022-08-18T10:07:53.753Z,98180.31
2022-08-18T10:09:36.417Z,98172.00
2022-08-18T10:11:00.464Z,98173.31
2022-08-18T10:12:20.791Z,98163.88
2022-08-18T10:13:29.900Z,98163.66
2022-08-18T10:15:04.432Z,98161.66
2022-08-18T10:16:17.310Z,98156.97
2022-08-18T10:17:32.870Z,98161.81
2022-08-18T10:18:53.037Z,98162.28
2022-08-18T10:20:01.278Z,98158.78
2022-08-18T10:21:12.909Z,98160.38
2022-08-18T10:22:37.030Z,98160.16
2022-08-18T10:24:14.704Z,98150.34
2022-08-18T10:25:39.740Z,98157.03
2022-08-18T10:27:11.069Z,98151.47
2022-08-18T10:28:50.171Z,98156.78
2022-08-18T10:29:56.398Z,98146.50
2022-08-18T10:31:10.115Z,98152.66
2022-08-18T10:32:38.570Z,98144.16
2022-08-18T10:34:16.895Z,98138.69
2022-08-18T10:35:57.678Z,98142.50
2022-08-18T10:37:06.355Z,98140.75
2022-08-18T10:38:13.239Z,98139.81
2022-08-18T10:39:23.554Z,98140.94
2022-08-18T10:40:27.203Z,98147.66
2022-08-18T10:41:33.419Z,98140.44
2022-08-18T10:42:42.108Z,98141.56
2022-08-18T10:43:55.804Z,98141.41
2022-08-18T10:45:09.651Z,98138.69
2022-08-18T10:46:24.660Z,98130.34
2022-08-18T10:47:33.462Z,98124.44
2022-08-18T10:48:40.254Z,98121.09
2022-08-18T10:49:50.640Z,98126.25
2022-08-18T10:50:58.878Z,98124.47
2022-08-18T10:52:18.096Z,98122.34
2022-08-18T10:53:44.466Z,98123.31
2022-08-18T10:55:23.271Z,98116.44
2022-08-18T10:56:33.769Z,98126.84
2022-08-18T10:57:47.063Z,98125.66
2022-08-18T10:59:02.163Z,98123.34
2022-08-18T11:00:10.821Z,98120.72
2022-08-18T11:01:32.919Z,98114.63
2022-08-18T11:03:39.913Z,98112.72
2022-08-18T11:04:38.792Z,98116.47
2022-08-18T11:05:43.157Z,98120.03
2022-08-18T11:06:50.819Z,98111.00
2022-08-18T11:08:00.811Z,98111.84
2022-08-18T11:09:04.150Z,98108.75
2022-08-18T11:10:58.078Z,98101.66
2022-08-18T11:11:52.997Z,98115.03
2022-08-18T11:13:09.831Z,98110.72
2022-08-18T11:14:35.793Z,98112.53
2022-08-18T11:15:50.614Z,98101.00
2022-08-18T11:17:02.668Z,98097.56
2022-08-18T11:18:18.620Z,98096.75
2022-08-18T11:19:25.072Z,98104.44
2022-08-18T11:20:31.679Z,98097.41
2022-08-18T11:21:41.962Z,98108.13
2022-08-18T11:22:55.527Z,98099.34
2022-08-18T11:24:07.232Z,98102.78
2022-08-18T11:25:24.081Z,98103.59
2022-08-18T11:26:31.381Z,98093.53
2022-08-18T11:27:36.982Z,98096.44
2022-08-18T11:28:45.349Z,98097.06
2022-08-18T11:29:50.158Z,98098.97
2022-08-18T11:30:56.377Z,98094.28
2022-08-18T11:32:10.994Z,98094.72
2022-08-18T11:34:45.540Z,98091.81
2022-08-18T11:35:58.779Z,98087.16
2022-08-18T11:37:03.997Z,98095.00
2022-08-18T11:38:23.285Z,98085.63
2022-08-18T11:39:37.612Z,98086.91
2022-08-18T11:42:15.944Z,98080.78
2022-08-18T11:43:29.752Z,98085.72
2022-08-18T11:44:42.483Z,98087.66
2022-08-18T11:45:54.330Z,98078.03
2022-08-18T11:47:14.770Z,98082.00
2022-08-18T11:48:21.487Z,98081.50
2022-08-18T11:49:34.079Z,98077.00
2022-08-18T11:50:54.322Z,98072.03
2022-08-18T11:52:02.356Z,98073.81
2022-08-18T11:53:19.129Z,98072.47
2022-08-18T11:54:50.666Z,98072.09
2022-08-18T11:56:13.529Z,98058.44
2022-08-18T11:57:46.527Z,98064.25
2022-08-18T11:58:55.520Z,98057.13
2022-08-18T12:01:41.925Z,98056.34
2022-08-18T12:02:47.135Z,98046.34
2022-08-18T12:03:51.524Z,98044.00
2022-08-18T12:05:03.062Z,98043.94
2022-08-18T12:06:20.303Z,98038.00
2022-08-18T12:07:30.797Z,98034.34
2022-08-18T12:10:26.260Z,98042.09
2022-08-18T12:11:34.418Z,98042.59
2022-08-18T12:12:46.707Z,98039.72
2022-08-18T12:14:31.245Z,98040.72
2022-08-18T12:15:46.689Z,98039.59
2022-08-18T12:16:53.942Z,98047.25
2022-08-18T12:17:58.888Z,98042.84
2022-08-18T12:19:05.415Z,98040.38
2022-08-18T12:20:16.430Z,98043.72
2022-08-18T12:21:19.469Z,98036.53
2022-08-18T12:22:28.081Z,98040.56
2022-08-18T12:23:38.827Z,98043.72
2022-08-18T12:24:54.962Z,98033.38
2022-08-18T12:25:59.590Z,98033.47
2022-08-18T12:28:28.960Z,98021.91
2022-08-18T12:29:43.387Z,98023.53
2022-08-18T12:30:48.518Z,98030.31
2022-08-18T12:32:00.677Z,98021.59
2022-08-18T12:33:12.059Z,98024.50
2022-08-18T12:34:17.991Z,98015.81
2022-08-18T12:35:28.382Z,98026.75
2022-08-18T12:36:32.784Z,98018.78
2022-08-18T12:39:02.770Z,98021.13
2022-08-18T12:40:10.369Z,98020.91
2022-08-18T12:41:18.611Z,98026.59
2022-08-18T12:42:27.397Z,98023.38
2022-08-18T12:43:32.116Z,98027.69
2022-08-18T12:44:35.431Z,98027.06
2022-08-18T12:45:40.531Z,98020.00
2022-08-18T12:46:58.265Z,98023.97
2022-08-18T12:49:29.668Z,98025.47
2022-08-18T12:50:36.151Z,98019.25
2022-08-18T12:51:50.335Z,98017.44
2022-08-18T12:52:54.431Z,98015.88
2022-08-18T12:54:00.432Z,98016.91
2022-08-18T12:55:05.454Z,98019.53
2022-08-18T12:56:13.737Z,98016.09
2022-08-18T12:58:47.740Z,98022.00
2022-08-18T12:59:52.436Z,98022.34
2022-08-18T13:01:00.898Z,98022.44
2022-08-18T13:02:07.586Z,98021.19
2022-08-18T13:03:13.813Z,98016.06
2022-08-18T13:04:18.514Z,98026.06
2022-08-18T13:05:27.603Z,98014.81
2022-08-18T13:06:34.222Z,98020.41
2022-08-18T13:07:38.708Z,98015.31
2022-08-18T13:08:48.044Z,98009.53
2022-08-18T13:09:54.658Z,98019.06
2022-08-18T13:11:15.194Z,98027.88
2022-08-18T13:12:27.377Z,98019.16
2022-08-18T13:13:31.238Z,98026.03
2022-08-18T13:14:35.941Z,98016.56
2022-08-18T13:15:39.672Z,98018.38
2022-08-18T13:16:58.750Z,98023.75
2022-08-18T13:18:03.084Z,98022.03
2022-08-18T13:19:36.606Z,98015.44
2022-08-18T13:20:41.248Z,98021.50
2022-08-18T13:21:49.564Z,98022.50
2022-08-18T13:22:52.800Z,98028.44
2022-08-18T13:23:58.028Z,98028.88
2022-08-18T13:25:05.470Z,98030.69
2022-08-18T13:26:11.294Z,98032.22
2022-08-18T13:27:18.596Z,98031.59
2022-08-18T13:28:36.230Z,98032.06
2022-08-18T13:29:58.627Z,98037.97
2022-08-18T13:31:03.461Z,98045.72
2022-08-18T13:32:09.771Z,98037.59
2022-08-18T13:33:35.171Z,98045.38
2022-08-18T13:34:41.118Z,98043.69
2022-08-18T13:35:54.150Z,98036.28
2022-08-18T13:36:58.660Z,98045.41
2022-08-18T13:38:06.555Z,98045.78
2022-08-18T13:39:22.512Z,98044.03
2022-08-18T13:40:29.488Z,98048.47
2022-08-18T13:41:33.556Z,98053.53
2022-08-18T13:42:50.815Z,98052.31
2022-08-18T13:43:54.436Z,98054.69
2022-08-18T13:45:25.027Z,98048.13
2022-08-18T13:46:30.001Z,98056.34
2022-08-18T13:47:38.321Z,98051.59
2022-08-18T13:48:42.909Z,98051.19
2022-08-18T13:49:58.165Z,98058.41
2022-08-18T13:51:05.625Z,98057.38
2022-08-18T13:52:33.174Z,98055.53
2022-08-18T13:53:50.395Z,98049.06
2022-08-18T13:54:54.797Z,98054.66
2022-08-18T13:56:00.183Z,98047.56
2022-08-18T13:57:03.649Z,98045.69
2022-08-18T13:58:17.582Z,98053.38
2022-08-18T13:59:27.322Z,98046.94
2022-08-18T14:00:31.419Z,98041.66
2022-08-18T14:01:44.491Z,98044.03
2022-08-18T14:02:57.434Z,98046.75
2022-08-18T14:04:01.471Z,98045.53
2022-08-18T14:05:07.730Z,98040.41